Huvudsida
METAR-TAF:

METAR-TAF

Flygplatser :

Petropavlosk South Airport

Petropavl, Kazakstan

latitud: 54-46-28N, longitud: 069-11-06E, höjd: 139 m

Aktuellt väderrapport

Denna rapport gjordes för 40 minuter sedan, klockan 15:00 UTC
Vind 6 kt från väst
Temperatur 11°C
Fuktighet 43%
Tryck 1011 hPa
Sikt 10 km eller mer
Inga moln under 1 500 m eller inga cumulonimbus

METAR: UACP 271500Z 26003MPS CAVOK 11/M01 Q1011 R23/1/0060 NOSIG RMK QFE746/0994

Tid: 21:40 (15:40 UTC)


TAF: saknas

Aktuella väderrapporter och prognoser från 4000 flygplatser (METAR- och TAF-rapporter).

De tillgängliga stationerna syns som gula och röda prickar på kartan.

För musen över prickarna för att se namnen på stationerna.

Klicka sedan för att få väderrapporter och prognoser.

För att ändra kartan: Klicka på de gröna knapparna med ett svart kors på för att zooma in; den gröna knappen med ett streck på för att zooma ut; eller på de gröna pilarna för angränsande kartor.


METAR-TAF: